Time;durP1;ratioP1;P1;durP2;ratioP2;P2;SDS_P1;SDS_P2;PMS_P1;PMS_P2;Temp;Humidity;BMP_temperature;BMP_pressure;BME280_temperature;BME280_humidity;BME280_pressure;Samples;Min_cycle;Max_cycle;Signal;HPM_P1;HPM_P2
2022/12/16 00:00:15;;;;;;;62.63;31.43;;;0.20;99.90;;;;;;5021030;28;20087;-77
2022/12/16 00:02:41;;;;;;;50.73;24.77;;;0.20;99.90;;;;;;5020092;28;20112;-77
2022/12/16 00:05:07;;;;;;;51.20;25.03;;;0.30;99.90;;;;;;5020597;28;20475;-78
2022/12/16 00:07:33;;;;;;;56.40;26.57;;;0.20;99.90;;;;;;5020801;28;20076;-77
2022/12/16 00:09:59;;;;;;;51.33;26.83;;;0.30;99.90;;;;;;5020968;28;20032;-77
2022/12/16 00:12:25;;;;;;;49.17;24.30;;;0.20;99.90;;;;;;5020489;28;20155;-77
2022/12/16 00:14:51;;;;;;;49.10;25.10;;;0.30;99.90;;;;;;5020670;28;20022;-78
2022/12/16 00:17:17;;;;;;;47.43;23.93;;;0.30;99.90;;;;;;5020633;28;20056;-77
2022/12/16 00:19:43;;;;;;;49.77;23.43;;;0.30;99.90;;;;;;5021144;28;20037;-77
2022/12/16 00:22:08;;;;;;;46.57;23.07;;;0.30;99.90;;;;;;5020571;28;20032;-77
2022/12/16 00:24:34;;;;;;;50.13;24.93;;;0.30;99.90;;;;;;5020376;28;20196;-77
2022/12/16 00:26:59;;;;;;;45.90;23.37;;;0.30;99.90;;;;;;5020027;28;20053;-77
2022/12/16 00:29:25;;;;;;;46.03;24.13;;;0.30;99.90;;;;;;5019821;28;21025;-77
2022/12/16 00:31:51;;;;;;;47.50;23.70;;;0.30;99.90;;;;;;5007873;28;20029;-77
2022/12/16 00:34:17;;;;;;;47.80;24.17;;;0.30;99.90;;;;;;5019909;28;20036;-77
2022/12/16 00:36:42;;;;;;;47.27;23.87;;;0.30;99.90;;;;;;5020648;28;20782;-77
2022/12/16 00:39:09;;;;;;;49.60;24.53;;;0.30;99.90;;;;;;5018287;28;20037;-77
2022/12/16 00:41:36;;;;;;;47.30;24.67;;;0.30;99.90;;;;;;5020658;28;20494;-77
2022/12/16 00:44:02;;;;;;;45.53;22.87;;;0.30;99.90;;;;;;5019679;28;20025;-77
2022/12/16 00:46:28;;;;;;;45.00;22.90;;;0.30;99.90;;;;;;5022080;28;20040;-77
2022/12/16 00:48:54;;;;;;;46.27;23.27;;;0.30;99.90;;;;;;5018054;28;20068;-77
2022/12/16 00:51:20;;;;;;;49.07;23.90;;;0.30;99.90;;;;;;5020428;28;20878;-77
2022/12/16 00:53:45;;;;;;;39.57;21.80;;;0.30;99.90;;;;;;5019982;28;20033;-77
2022/12/16 00:56:17;;;;;;;41.73;20.70;;;0.30;99.90;;;;;;5020268;28;20149;-77
2022/12/16 00:58:42;;;;;;;42.17;21.10;;;0.30;99.90;;;;;;5006778;28;20426;-77
2022/12/16 01:01:08;;;;;;;44.00;22.33;;;0.30;99.90;;;;;;5019936;28;20029;-77
2022/12/16 01:03:34;;;;;;;39.17;20.73;;;0.30;99.90;;;;;;5019697;28;20439;-77
2022/12/16 01:06:00;;;;;;;43.00;22.33;;;0.30;99.90;;;;;;5019951;28;20064;-77
2022/12/16 01:08:26;;;;;;;40.53;20.87;;;0.30;99.90;;;;;;5020030;28;20702;-77
2022/12/16 01:10:55;;;;;;;40.80;21.30;;;0.30;99.90;;;;;;5007875;28;20033;-77
2022/12/16 01:13:23;;;;;;;42.20;21.03;;;0.30;99.90;;;;;;5018718;28;20093;-77
2022/12/16 01:15:49;;;;;;;41.63;21.37;;;0.30;99.90;;;;;;5019926;28;20079;-77
2022/12/16 01:18:16;;;;;;;38.03;20.27;;;0.30;99.90;;;;;;5019298;28;20092;-77
2022/12/16 01:20:41;;;;;;;46.23;21.07;;;0.30;99.90;;;;;;5019934;28;20044;-77
2022/12/16 01:23:07;;;;;;;38.87;20.47;;;0.30;99.90;;;;;;5019718;28;20025;-77
2022/12/16 01:25:33;;;;;;;43.30;21.90;;;0.30;99.90;;;;;;5019747;28;20068;-76
2022/12/16 01:27:58;;;;;;;41.03;21.47;;;0.30;99.90;;;;;;5019830;28;20030;-77
2022/12/16 01:30:24;;;;;;;39.93;21.13;;;0.30;99.90;;;;;;5008521;28;20026;-77
2022/12/16 01:32:50;;;;;;;42.03;21.70;;;0.30;99.90;;;;;;5007054;28;20037;-77
2022/12/16 01:35:16;;;;;;;44.80;23.17;;;0.30;99.90;;;;;;5019516;28;20029;-77
2022/12/16 01:37:42;;;;;;;42.90;22.60;;;0.30;99.90;;;;;;5019697;28;20033;-78
2022/12/16 01:40:15;;;;;;;43.80;23.53;;;0.30;99.90;;;;;;5020560;28;20115;-78
2022/12/16 01:42:42;;;;;;;49.23;24.03;;;0.30;99.90;;;;;;5023174;28;20504;-78
2022/12/16 01:45:35;;;;;;;52.93;26.50;;;0.30;99.90;;;;;;5023558;28;20116;-78
2022/12/16 01:48:15;;;;;;;47.77;25.07;;;0.30;99.90;;;;;;5019758;28;20112;-78
2022/12/16 01:50:41;;;;;;;46.83;24.97;;;0.30;99.90;;;;;;5022922;28;20030;-78
2022/12/16 01:53:07;;;;;;;49.73;24.63;;;0.30;99.90;;;;;;5022933;28;20034;-78
2022/12/16 01:55:39;;;;;;;48.40;24.80;;;0.30;99.90;;;;;;5011339;28;20413;-78
2022/12/16 01:58:11;;;;;;;53.50;25.90;;;0.30;99.90;;;;;;5010419;28;20029;-78
2022/12/16 02:00:39;;;;;;;50.60;25.70;;;0.20;99.90;;;;;;5023495;28;20924;-78
2022/12/16 02:03:05;;;;;;;49.07;25.57;;;0.20;99.90;;;;;;5026224;28;20487;-78
2022/12/16 02:05:36;;;;;;;51.03;27.03;;;0.20;99.90;;;;;;5022530;28;20040;-78
2022/12/16 02:08:18;;;;;;;54.30;26.50;;;0.20;99.90;;;;;;5023109;28;20042;-78
2022/12/16 02:10:44;;;;;;;50.00;26.47;;;0.20;99.90;;;;;;5010714;28;20037;-78
2022/12/16 02:13:35;;;;;;;50.13;24.93;;;0.20;99.90;;;;;;5027716;28;20026;-78
2022/12/16 02:16:14;;;;;;;50.90;25.00;;;0.20;99.90;;;;;;5026287;28;20533;-78
2022/12/16 02:18:51;;;;;;;50.70;27.27;;;0.20;99.90;;;;;;5020814;28;20025;-78
2022/12/16 02:21:30;;;;;;;54.53;26.10;;;0.20;99.90;;;;;;5022751;28;20034;-78
2022/12/16 02:24:04;;;;;;;52.93;26.33;;;0.20;99.90;;;;;;5010057;28;20164;-78
2022/12/16 02:27:00;;;;;;;50.63;27.50;;;0.20;99.90;;;;;;5022678;28;20498;-78
2022/12/16 02:29:32;;;;;;;46.90;26.03;;;0.20;99.90;;;;;;5009743;28;20529;-77
2022/12/16 02:32:24;;;;;;;42.77;26.17;;;0.20;99.90;;;;;;5022022;28;20052;-77
2022/12/16 02:35:10;;;;;;;44.07;25.87;;;0.20;99.90;;;;;;5022457;28;20033;-78
2022/12/16 02:38:20;;;;;;;40.90;24.73;;;0.20;99.90;;;;;;5022544;28;20026;-77
2022/12/16 02:41:02;;;;;;;38.43;23.57;;;0.10;99.90;;;;;;5022670;28;20030;-77
2022/12/16 02:44:02;;;;;;;39.87;24.43;;;0.10;99.90;;;;;;5022449;28;20035;-77
2022/12/16 02:46:31;;;;;;;38.83;24.50;;;0.00;99.90;;;;;;5009035;28;20785;-77
2022/12/16 02:49:06;;;;;;;40.23;24.80;;;0.00;99.90;;;;;;5022234;28;20452;-77
2022/12/16 02:51:34;;;;;;;41.83;25.70;;;-0.10;99.90;;;;;;5010482;28;20445;-77
2022/12/16 02:54:00;;;;;;;45.07;27.20;;;-0.10;99.90;;;;;;5021760;28;20041;-78
2022/12/16 02:57:03;;;;;;;44.73;26.63;;;-0.20;99.90;;;;;;5025581;28;20040;-78
2022/12/16 02:59:31;;;;;;;40.33;24.87;;;-0.20;99.90;;;;;;5022525;28;20036;-77
2022/12/16 03:01:59;;;;;;;42.00;26.33;;;-0.30;99.90;;;;;;5008563;28;20041;-77
2022/12/16 03:04:39;;;;;;;43.53;26.57;;;-0.30;99.90;;;;;;5023688;28;20029;-78
2022/12/16 03:07:08;;;;;;;44.50;27.10;;;-0.40;99.90;;;;;;5026235;28;20046;-78
2022/12/16 03:09:37;;;;;;;43.47;25.73;;;-0.40;99.90;;;;;;5021595;28;20037;-78
2022/12/16 03:12:06;;;;;;;40.83;25.93;;;-0.50;99.90;;;;;;5021552;28;20026;-78
2022/12/16 03:14:35;;;;;;;45.10;25.97;;;-0.50;99.90;;;;;;5022074;28;21579;-77
2022/12/16 03:17:02;;;;;;;43.23;26.87;;;-0.50;99.90;;;;;;5021645;28;20116;-78
2022/12/16 03:19:29;;;;;;;48.97;27.77;;;-0.50;99.90;;;;;;5020984;28;20060;-78
2022/12/16 03:22:10;;;;;;;43.93;27.30;;;-0.60;99.90;;;;;;5022161;28;20030;-77
2022/12/16 03:24:38;;;;;;;45.57;27.37;;;-0.60;99.90;;;;;;5019532;28;20022;-78
2022/12/16 03:27:22;;;;;;;45.50;27.07;;;-0.60;99.90;;;;;;5020733;28;20026;-78
2022/12/16 03:30:12;;;;;;;49.87;29.23;;;-0.70;99.90;;;;;;5021302;28;20120;-78
2022/12/16 03:32:49;;;;;;;46.90;27.57;;;-0.60;99.90;;;;;;5005968;28;20103;-78
2022/12/16 03:35:24;;;;;;;49.40;28.13;;;-0.70;99.90;;;;;;5021356;28;20120;-78
2022/12/16 03:37:54;;;;;;;32.42;19.55;;;-0.70;99.90;;;;;;5021261;28;20116;-78
2022/12/16 03:40:21;;;;;;;45.17;27.63;;;-0.70;99.90;;;;;;5021439;28;20079;-78
2022/12/16 03:42:48;;;;;;;42.83;26.17;;;-0.70;99.90;;;;;;5021508;28;20079;-78
2022/12/16 03:45:21;;;;;;;45.67;26.77;;;-0.60;99.90;;;;;;5021093;28;20465;-78
2022/12/16 03:47:49;;;;;;;40.93;25.07;;;-0.70;99.90;;;;;;5020429;28;20026;-78
2022/12/16 03:50:18;;;;;;;43.83;25.67;;;-0.70;99.90;;;;;;5020642;28;20810;-78
2022/12/16 03:52:44;;;;;;;43.93;26.67;;;-0.70;99.90;;;;;;5004902;28;20124;-78
2022/12/16 03:55:09;;;;;;;44.17;26.80;;;-0.80;99.90;;;;;;5008944;28;20534;-78
2022/12/16 03:57:35;;;;;;;44.83;25.57;;;-0.80;99.90;;;;;;5020792;28;20033;-78
2022/12/16 04:00:00;;;;;;;44.93;26.87;;;-0.80;99.90;;;;;;5021302;28;20112;-78
2022/12/16 04:02:26;;;;;;;45.43;27.20;;;-0.80;99.90;;;;;;5020798;28;20029;-79
2022/12/16 04:04:51;;;;;;;45.13;26.87;;;-0.80;99.90;;;;;;5020498;28;20040;-78
2022/12/16 04:07:20;;;;;;;42.37;26.13;;;-0.80;99.90;;;;;;5021323;28;20698;-78
2022/12/16 04:09:47;;;;;;;44.40;26.03;;;-0.80;99.90;;;;;;5005295;28;20032;-79
2022/12/16 04:26:01;;;;;;;;;;;-1.00;99.90;;;;;;5020543;28;21541;-79
2022/12/16 04:28:27;;;;;;;49.93;29.20;;;-0.90;99.90;;;;;;5020335;28;19909;-79
2022/12/16 04:30:53;;;;;;;45.53;26.47;;;-0.90;99.90;;;;;;5006484;28;20743;-79
